Accueil
METAR-TAF:

METAR-TAF

Aéroports :

Aérodrome de Londres Biggin Hill

Londres Biggin Hill, Angleterre

latitude: 51-19N, longitude: 000-02E, altitude: 183 m

Observation

Le bulletin a été fait il y a 23 minutes, à 16:20 UTC
Vent 11 kt de nord/nord-est, variant entre nord et nord-est
Température 14°C
Humidité 63%
Pression 1017 hPa
Visibilité 10 km ou plus
Quelques nuages à une hauteur de 4500 ft

METAR: EGKB 241620Z 02011KT 350V050 9999 FEW045 14/07 Q1017

Heure: 17:43 (16:43 UTC)

Prévision

Le bulletin a été fait il y a 2 heures et 44 minutes, à 13:59 UTC
Prévision valable du 24 à 15 UTC au 24 à 21 UTC
Vent 9 kt de nord
Visibilité 10 km ou plus
Nuages épars à une hauteur de 3500 ft
Temporairement
du 24 à 17 UTC au 24 à 19 UTC
Visibilité: 9000 m
faibles averses de pluie

TAF: EGKB 241359Z 2415/2421 01009KT 9999 SCT035 TEMPO 2417/2419 9000 -SHRA

Observations et prévisions météorologiques de plus de 4000 aéroports (messages METAR et TAF).

Les stations disponibles sont représentées par des disques jaunes et rouges sur la carte.

Passer la souris dessus pour voir le nom de la station.

Cliquer dessus pour voir les observations et prévisions météorologiques.

Pour changer de carte: cliquez sur les boutons verts avec une croix noire pour zoomer, sur le bouton vert avec un tiret pour effectuer un zoom arrière, ou sur les flèches vertes pour les cartes adjacentes.


METAR-TAF: